Pagrindinis puslapis
METAR-TAF:

METAR-TAF

Oro uostai :

Aviano, Italija

platuma: 46-02N, ilguma: 012-36E, Aukštis: 128 m

METAR: trūkstamas

Laikas: 21:35 (19:35 UTC)

Prognozė

Ataskaita buvo paskelbta 26 valandos ir 35 minutes, ne 17:00 UTC
Prognozė galioja nuo 29 metu 18 UTC su 30 metu 03 UTC
Vėjas 10 kt iš Pietų/Pietvakarių
Matomumas 10 km arba daugiau
Išsisklaidę debesys ne aukštis 5000 ft
Tapsmas
nuo 29 metu 19 UTC su 29 metu 21 UTC
Vėjas 5 kt nuo kintamojo kryptimis

TAF: LIPA 291700Z 2918/3003 21010KT 9999 SCT050 BECMG 2919/2921 VRB05KT

Orai ataskaitas ir orų prognozės (METAR, TAF).

turimą stotys yra geltonos ir raudonos taškus žemėlapyje.

Perkelti pele per norėdami pamatyti stoties vardą.

Tada spustelėkite, norėdami matyti oro stebėjimo ir prognozės.

Norėdami pakeisti žemėlapį: spustelėkite ant žalios mygtukų su juodo kryžiaus žemyn,; žalią mygtuką su brūkšneliu, jei norite nutolinti; arba žalių rodyklių gretimoms žemėlapius.


METAR-TAF: